Price, UT

4:39 AM MDT on July 31, 2014 (GMT -0600)
Carbon County (KPUC) Elev 5955 ft | 39.61 °N, 110.75 °W | Change Station

Current weather conditions updated 46 minutes ago

Clear
Clear
63 °F
Feels Like 63 °F
N
5
Wind Variable Wind from NW

Today is forecast to be nearly the same temperature as yesterday. Showers and thunderstorms late.

Today
High -- | Low -- °F
--% Chance of Precip.
Yesterday
High -- | Low -- °F
Precip. -- in
6:22 AM 8:36 PM
Waxing Crescent, 17% visible
Pressure 30.25 in
Visibility 10.0 miles
Clouds Clear
Dew Point 50 °F
Humidity 63%
Rainfall 0.00 in
Snow Depth Not available.
UV 0 out of 12
Pollen 6.10 out of 12
Air Quality Not available.
Flu Activity Not available.
METAR KPUC 310953Z AUTO 32004KT 10SM CLR 17/10 A3025

More Conditions Fewer Conditions

Pressure 30.25 in
Visibility 10.0 miles
Clouds Clear
Dew Point 50 °F
Humidity 63%
Rainfall 0.00 in
Snow Depth Not available.
UV 0 out of 12
Pollen 6.10 out of 12
Air Quality Not available.
Flu Activity Not available.
METAR KPUC 310953Z AUTO 32004KT 10SM CLR 17/10 A3025

More Conditions Fewer Conditions

10-Day Weather Forecast

Almanac

Astronomy

Jul. 31, 2014 Rise Set
Actual Time 6:22 AM MDT 8:36 PM MDT
Civil Twilight 5:52 AM MDT 9:06 PM MDT
Nautical Twilight 5:15 AM MDT 9:43 PM MDT
Astronomical Twilight 4:35 AM MDT 10:23 PM MDT
Moon 10:51 AM MDT 10:53 PM MDT
Length of Visible Light 15h 14m
Length of Day
14h 14m
Tomorrow will be 1m 55s shorter.
Waxing Crescent, 17% of the Moon is Illuminated
Today
Waxing Crescent
Aug 3
First Quarter
Aug 10
Full
Aug 17
Last Quarter
Aug 25
New

Today's Extremes

State Highs State Lows

Community

WunderPhotos

Upload Photos

1,739,289 photos uploaded!

Nearby

Snow Depth

Station Depth Elevation
Red Pine Ridge 0 in 9200 ft
Seeley Creek 0 in 10000 ft
Clear Creek #2 1 in 8300 ft
Payson R.S. 0 in 8050 ft
Black Flat-U.M. Creek 0 in 9400 ft

Earthquake Activity

City Distance Mag. Time & Date
No recent earthquake activity has been reported nearby.
Minimum magnitude displayed is 2.5.

Coastal Water Temperatures

Place Temperature
No Stations Reporting

Nearby Weather Stations

Station Location Temp. Dew Point Humidity Wind Precip. Elev Updated Type
MesoWest PRICE , Wellington, UT 62 °F 51 °F 68% NW  at  6 mph 0.00 in / hr 5646 ft 3:00 AM MDT MADIS
MesoWest MOUNDS , Wellington, UT 67 °F - - North  at  - 0.00 in / hr 5383 ft 12:50 AM MDT MADIS
MesoWest Price , Wellington, UT 65 °F 51 °F 60% North  at  7 mph 0.00 in / hr 5688 ft 2:45 AM MDT MADIS
MesoWest SPGLEN , Scofield, UT 66 °F - - North  at  - 0.00 in / hr 5728 ft 3:05 AM MDT MADIS

Show More Stations Show Fewer Stations